Time;durP1;ratioP1;P1;durP2;ratioP2;P2;SDS_P1;SDS_P2;PMS_P1;PMS_P2;Temp;Humidity;BMP_temperature;BMP_pressure;BME280_temperature;BME280_humidity;BME280_pressure;Samples;Min_cycle;Max_cycle;Signal;HPM_P1;HPM_P2
2022/07/10 00:00:55;;;;;;;3.03;1.95;;;;;;;12.90;nan;102718.28;5021897;28;20029;-58
2022/07/10 00:03:21;;;;;;;6.13;2.30;;;;;;;12.85;89.87;102710.25;5024622;28;20020;-60
2022/07/10 00:05:46;;;;;;;4.95;2.50;;;;;;;12.84;90.27;102711.06;5022912;28;20030;-59
2022/07/10 00:08:11;;;;;;;7.70;2.42;;;;;;;12.82;90.04;102710.13;5023511;28;20037;-60
2022/07/10 00:10:37;;;;;;;5.43;2.22;;;;;;;12.77;90.25;102721.09;5025478;28;20021;-58
2022/07/10 00:13:02;;;;;;;2.85;1.90;;;;;;;12.71;91.32;102724.25;5012191;28;20013;-60
2022/07/10 00:15:27;;;;;;;5.13;2.42;;;;;;;12.68;91.33;102714.56;5026882;28;20369;-59
2022/07/10 00:17:52;;;;;;;6.13;2.20;;;;;;;12.65;91.80;102714.41;5020431;28;20674;-60
2022/07/10 00:20:18;;;;;;;4.53;2.40;;;;;;;12.66;91.13;102717.91;5025847;28;20024;-59
2022/07/10 00:22:43;;;;;;;4.05;2.30;;;;;;;12.64;91.91;102714.31;5028611;28;20413;-60
2022/07/10 00:25:10;;;;;;;5.05;2.55;;;;;;;12.61;91.72;102712.44;5026495;28;20022;-60
2022/07/10 00:27:37;;;;;;;3.22;2.17;;;;;;;12.56;92.47;102717.41;5022415;28;20087;-60
2022/07/10 00:30:03;;;;;;;3.97;1.85;;;;;;;12.48;92.42;102710.91;5026168;28;20029;-59
2022/07/10 00:32:29;;;;;;;4.68;2.20;;;;;;;12.47;92.74;102712.59;5020219;28;20025;-60
2022/07/10 00:34:54;;;;;;;3.38;2.45;;;;;;;12.44;92.73;102709.84;5016606;28;20465;-60
2022/07/10 00:37:21;;;;;;;4.60;2.55;;;;;;;12.38;93.13;102714.69;5022566;28;20066;-60
2022/07/10 00:39:47;;;;;;;5.45;2.40;;;;;;;12.35;93.71;102707.66;5023425;28;20484;-60
2022/07/10 00:42:14;;;;;;;4.00;2.47;;;;;;;12.31;94.54;102707.38;5017390;28;20399;-60
2022/07/10 00:44:41;;;;;;;4.93;2.20;;;;;;;12.28;94.28;102712.41;5026214;28;20100;-60
2022/07/10 00:47:08;;;;;;;3.78;2.35;;;;;;;12.26;95.14;102704.53;5021206;28;20026;-60
2022/07/10 00:49:34;;;;;;;5.10;2.80;;;;;;;12.24;95.19;102706.16;5027336;28;20489;-59
2022/07/10 00:52:02;;;;;;;5.95;2.63;;;;;;;12.20;95.01;102697.28;5019154;28;20033;-60
2022/07/10 00:54:29;;;;;;;4.38;2.42;;;;;;;12.18;95.17;102698.91;5023142;28;20028;-60
2022/07/10 00:56:55;;;;;;;5.80;2.38;;;;;;;12.18;95.92;102696.31;5017300;28;20048;-59
2022/07/10 00:59:21;;;;;;;3.33;2.28;;;;;;;12.17;95.57;102704.03;5023986;28;20021;-59
2022/07/10 01:01:48;;;;;;;6.78;2.80;;;;;;;12.16;95.75;102692.72;5026151;28;20025;-60
2022/07/10 01:04:13;;;;;;;6.45;2.30;;;;;;;12.16;95.50;102691.84;5023813;28;20074;-58
2022/07/10 01:06:38;;;;;;;2.60;2.15;;;;;;;12.12;96.23;102686.47;5020843;28;20021;-60
2022/07/10 01:09:04;;;;;;;4.63;2.30;;;;;;;12.08;96.06;102678.38;5023612;28;20492;-60
2022/07/10 01:11:32;;;;;;;4.93;2.15;;;;;;;12.08;96.85;102681.00;5024995;28;20032;-61
2022/07/10 01:13:58;;;;;;;6.53;2.30;;;;;;;12.06;96.40;102674.81;5025803;28;20025;-61
2022/07/10 01:16:23;;;;;;;3.92;2.20;;;;;;;12.05;97.51;102675.63;5023464;28;20036;-60
2022/07/10 01:18:48;;;;;;;3.53;1.95;;;;;;;12.03;96.75;102669.44;5027087;28;20473;-60
2022/07/10 01:21:32;;;;;;;3.88;2.10;;;;;;;12.01;96.27;102670.28;5024872;28;20053;-60
2022/07/10 01:23:58;;;;;;;4.18;2.20;;;;;;;12.00;97.12;102665.88;5025132;28;20036;-60
2022/07/10 01:26:25;;;;;;;4.60;2.40;;;;;;;11.98;96.97;102666.59;5018939;28;20065;-60
2022/07/10 01:28:54;;;;;;;6.05;2.33;;;;;;;11.98;97.66;102664.00;5020904;28;20037;-59
2022/07/10 01:31:24;;;;;;;7.70;2.17;;;;;;;11.96;96.70;102669.09;5026706;28;20025;-59
2022/07/10 01:33:50;;;;;;;6.43;2.03;;;;;;;11.98;96.91;102661.41;5026244;28;20029;-60
2022/07/10 01:36:16;;;;;;;4.30;1.83;;;;;;;11.97;96.84;102660.50;5024231;28;20096;-60
2022/07/10 01:38:42;;;;;;;4.05;1.63;;;;;;;11.95;97.12;102664.72;5022380;28;20019;-59
2022/07/10 01:41:08;;;;;;;4.90;2.08;;;;;;;11.96;97.50;102658.69;5026535;28;20041;-60
2022/07/10 01:43:36;;;;;;;4.40;2.10;;;;;;;11.93;96.72;102671.53;5023565;28;20099;-60
2022/07/10 01:46:04;;;;;;;4.47;1.92;;;;;;;11.87;98.50;102663.41;5023343;28;20036;-59
2022/07/10 01:48:33;;;;;;;4.22;2.05;;;;;;;11.84;99.23;102658.03;5020575;28;20075;-60
2022/07/10 01:50:58;;;;;;;10.13;2.10;;;;;;;11.83;98.67;102666.63;5026798;28;20025;-59
2022/07/10 01:53:24;;;;;;;5.78;2.00;;;;;;;11.83;98.70;102669.22;5024110;28;20017;-60
2022/07/10 01:55:49;;;;;;;2.88;1.85;;;;;;;11.81;98.94;102666.56;5023236;28;20028;-59
2022/07/10 01:58:14;;;;;;;3.15;2.03;;;;;;;11.79;98.72;102660.38;5030043;28;20019;-60
2022/07/10 02:00:40;;;;;;;5.18;2.10;;;;;;;11.75;98.65;102661.91;5027235;28;20461;-59
2022/07/10 02:05:49;;;;;;;6.80;1.80;;;;;;;11.68;99.47;102657.16;5022835;28;20041;-60
2022/07/10 02:08:14;;;;;;;4.05;2.05;;;;;;;11.63;100.00;102656.03;5023871;28;20045;-59
2022/07/10 02:10:39;;;;;;;4.18;2.30;;;;;;;11.59;100.00;102659.25;5026215;28;20454;-59
2022/07/10 02:13:04;;;;;;;6.07;2.25;;;;;;;11.54;100.00;102669.38;5026836;28;20080;-60
2022/07/10 02:15:30;;;;;;;6.90;3.47;;;;;;;11.52;100.00;102664.09;5029508;28;20432;-58
2022/07/10 02:17:55;;;;;;;4.20;2.10;;;;;;;11.51;100.00;102664.88;5029551;28;20112;-58
2022/07/10 02:20:20;;;;;;;4.70;2.50;;;;;;;11.45;100.00;102659.34;5030444;28;20044;-59
2022/07/10 02:22:46;;;;;;;5.13;2.15;;;;;;;11.45;100.00;102654.16;5025494;28;20022;-59
2022/07/10 02:25:11;;;;;;;4.43;2.10;;;;;;;11.46;100.00;102658.53;5023360;28;20026;-59
2022/07/10 02:27:36;;;;;;;5.70;2.20;;;;;;;11.44;100.00;102654.94;5022792;28;20479;-59
2022/07/10 02:30:02;;;;;;;8.02;2.47;;;;;;;11.47;100.00;102667.22;5026333;28;20075;-59
2022/07/10 02:32:27;;;;;;;4.80;2.30;;;;;;;11.44;100.00;102665.34;5025276;28;20025;-60
2022/07/10 02:34:53;;;;;;;6.20;2.47;;;;;;;11.42;100.00;102664.38;5029388;28;20084;-60
2022/07/10 02:37:18;;;;;;;4.15;2.35;;;;;;;11.39;100.00;102665.09;5025339;28;20059;-59
2022/07/10 02:39:43;;;;;;;6.28;2.58;;;;;;;11.36;100.00;102654.53;5027538;28;20025;-59
2022/07/10 02:42:09;;;;;;;4.20;2.33;;;;;;;11.34;100.00;102655.25;5027338;28;20080;-59
2022/07/10 02:44:34;;;;;;;7.35;2.60;;;;;;;11.30;100.00;102656.75;5028266;28;20113;-59
2022/07/10 02:46:59;;;;;;;5.82;2.22;;;;;;;11.31;100.00;102655.06;5024480;28;20075;-59
2022/07/10 02:49:25;;;;;;;6.20;3.15;;;;;;;11.28;100.00;102656.66;5023625;28;20509;-60
2022/07/10 02:51:50;;;;;;;5.78;2.33;;;;;;;11.27;100.00;102652.31;5029407;28;20029;-59
2022/07/10 02:54:16;;;;;;;7.70;3.15;;;;;;;11.27;100.00;102652.31;5024022;28;20075;-58
2022/07/10 02:56:41;;;;;;;4.85;2.20;;;;;;;11.28;100.00;102651.47;5027573;28;20388;-59
2022/07/10 02:59:07;;;;;;;6.40;2.53;;;;;;;11.28;100.00;102651.47;5027709;28;20469;-59
2022/07/10 03:01:32;;;;;;;7.85;2.83;;;;;;;11.35;100.00;102642.34;5025522;28;20504;-58
2022/07/10 03:03:57;;;;;;;6.15;2.60;;;;;;;11.41;100.00;102639.22;5027017;28;20399;-59
2022/07/10 03:06:23;;;;;;;7.15;2.72;;;;;;;11.47;100.00;102639.56;5023107;28;20036;-59
2022/07/10 03:08:49;;;;;;;5.55;2.38;;;;;;;11.51;100.00;102643.25;5026081;28;20109;-60
2022/07/10 03:11:14;;;;;;;4.28;2.53;;;;;;;11.51;100.00;102649.31;5027569;28;20026;-59
2022/07/10 03:13:40;;;;;;;4.22;2.60;;;;;;;11.54;100.00;102643.41;5027443;28;20063;-60
2022/07/10 03:16:05;;;;;;;5.10;2.60;;;;;;;11.59;100.00;102643.66;5019021;28;20481;-59
2022/07/10 03:18:31;;;;;;;7.53;2.65;;;;;;;11.61;100.00;102645.56;5026316;28;20029;-59
2022/07/10 03:20:56;;;;;;;4.90;2.42;;;;;;;11.64;100.00;102642.22;5024807;28;20029;-60
2022/07/10 03:23:21;;;;;;;5.10;2.00;;;;;;;11.70;100.00;102639.06;5024932;28;20036;-59
2022/07/10 03:25:47;;;;;;;7.15;2.67;;;;;;;11.72;100.00;102640.97;5023285;28;20405;-60
2022/07/10 03:28:12;;;;;;;7.00;2.67;;;;;;;11.72;100.00;102638.38;5016520;28;20590;-59
2022/07/10 03:30:37;;;;;;;5.75;2.45;;;;;;;11.75;100.00;102638.53;5026055;28;20018;-60
2022/07/10 03:33:03;;;;;;;8.40;2.50;;;;;;;11.74;100.00;102641.94;5026695;28;20025;-59
2022/07/10 03:35:31;;;;;;;5.97;2.10;;;;;;;11.72;100.00;102634.88;5026555;28;20018;-58
2022/07/10 03:37:56;;;;;;;7.18;2.35;;;;;;;11.70;100.00;102626.09;5026646;28;20037;-60
2022/07/10 03:40:22;;;;;;;5.22;2.47;;;;;;;11.71;100.00;102630.50;5020818;28;20088;-59
2022/07/10 03:42:47;;;;;;;6.53;2.35;;;;;;;11.71;100.00;102625.31;5026585;28;20029;-59
2022/07/10 03:45:12;;;;;;;2.60;2.30;;;;;;;11.71;100.00;102620.09;5019705;28;20033;-60
2022/07/10 03:47:37;;;;;;;8.07;2.30;;;;;;;11.72;100.00;102621.88;5026807;28;20060;-58
2022/07/10 03:50:04;;;;;;;10.23;3.35;;;;;;;11.74;100.00;102631.56;5027588;28;20019;-59
2022/07/10 03:52:29;;;;;;;5.07;2.33;;;;;;;11.77;100.00;102626.53;5023222;28;20021;-59
2022/07/10 03:54:54;;;;;;;4.68;2.20;;;;;;;11.77;100.00;102626.53;5019546;28;20032;-59
2022/07/10 04:00:04;;;;;;;4.95;2.42;;;;;;;11.80;100.00;102627.50;5026856;28;20116;-59
2022/07/10 04:02:29;;;;;;;5.28;2.15;;;;;;;11.82;100.00;102628.50;5022174;28;20456;-60
2022/07/10 04:04:55;;;;;;;9.60;2.75;;;;;;;11.84;100.00;102621.66;5023118;28;20060;-59
2022/07/10 04:07:20;;;;;;;5.72;2.72;;;;;;;11.84;100.00;102621.66;5026315;28;20045;-58
2022/07/10 04:09:45;;;;;;;3.38;2.20;;;;;;;11.86;100.00;102626.13;5024889;28;20013;-60
2022/07/10 04:12:11;;;;;;;7.53;2.75;;;;;;;11.88;100.00;102624.53;5021730;28;20055;-60
2022/07/10 04:14:36;;;;;;;5.82;2.20;;;;;;;11.91;100.00;102612.53;5020743;28;20025;-60
2022/07/10 04:17:01;;;;;;;3.55;2.47;;;;;;;11.91;100.00;102622.91;5022055;28;20029;-60
2022/07/10 04:19:27;;;;;;;4.95;2.60;;;;;;;11.95;100.00;102624.84;5027095;28;20018;-58
2022/07/10 04:21:52;;;;;;;5.90;2.30;;;;;;;11.98;100.00;102625.91;5022722;28;20558;-59
2022/07/10 04:24:17;;;;;;;6.07;2.55;;;;;;;12.03;100.00;102626.19;5026361;28;20025;-59
2022/07/10 04:26:43;;;;;;;5.10;2.47;;;;;;;12.07;100.00;102616.84;5023887;28;20021;-60
2022/07/10 04:29:09;;;;;;;7.68;2.75;;;;;;;12.03;100.00;102604.50;5026682;28;20028;-59
2022/07/10 04:31:34;;;;;;;4.97;2.33;;;;;;;12.03;100.00;102612.28;5025485;28;20021;-59
2022/07/10 04:33:59;;;;;;;6.55;2.40;;;;;;;12.08;100.00;102621.22;5021522;28;20018;-59
2022/07/10 04:36:24;;;;;;;6.65;2.38;;;;;;;12.13;100.00;102625.00;5019264;28;20025;-59
2022/07/10 04:38:50;;;;;;;5.25;2.33;;;;;;;12.19;100.00;102629.63;5025178;28;20389;-60
2022/07/10 04:41:15;;;;;;;4.38;2.38;;;;;;;12.25;100.00;102612.66;5025363;28;20046;-60
2022/07/10 04:43:40;;;;;;;5.68;2.63;;;;;;;12.27;100.00;102623.13;5023068;28;20033;-59
2022/07/10 04:46:06;;;;;;;7.88;2.95;;;;;;;12.32;100.00;102615.59;5019189;28;20030;-60
2022/07/10 04:48:32;;;;;;;5.03;2.58;;;;;;;12.37;100.00;102616.75;5008675;28;20064;-60
2022/07/10 04:50:57;;;;;;;3.20;2.47;;;;;;;12.41;100.00;102615.19;5008828;28;20107;-59
2022/07/10 04:53:23;;;;;;;5.15;2.20;;;;;;;12.44;100.00;102620.53;5008057;28;20112;-59
2022/07/10 04:55:48;;;;;;;6.68;2.75;;;;;;;12.49;100.00;102622.59;5008227;28;20029;-58
2022/07/10 04:58:14;;;;;;;5.43;2.38;;;;;;;12.57;100.00;102627.28;5008213;28;20030;-59
2022/07/10 05:00:39;;;;;;;3.33;2.33;;;;;;;12.63;100.00;102630.19;5008178;28;20014;-59
2022/07/10 05:03:04;;;;;;;5.22;2.70;;;;;;;12.68;100.00;102633.94;5008158;28;20382;-59
2022/07/10 05:05:29;;;;;;;3.63;2.90;;;;;;;12.71;100.00;102626.31;5018633;28;20041;-59
2022/07/10 05:07:55;;;;;;;4.43;2.65;;;;;;;12.72;100.00;102606.38;5027973;28;20029;-59
2022/07/10 05:10:20;;;;;;;4.07;2.13;;;;;;;12.72;100.00;102612.47;5027696;28;20432;-60
2022/07/10 05:12:45;;;;;;;8.75;2.67;;;;;;;12.77;100.00;102636.09;5027468;28;20056;-60
2022/07/10 05:15:11;;;;;;;4.28;2.60;;;;;;;12.79;100.00;102633.63;5014482;28;20544;-60
2022/07/10 05:17:36;;;;;;;4.85;2.78;;;;;;;12.85;100.00;102631.31;5028226;28;20056;-59
2022/07/10 05:20:02;;;;;;;9.73;4.05;;;;;;;12.90;100.00;102637.63;5027707;28;20485;-60
2022/07/10 05:22:27;;;;;;;5.60;3.15;;;;;;;12.96;100.00;102642.28;5028034;28;20401;-60
2022/07/10 05:24:52;;;;;;;5.25;2.78;;;;;;;13.02;100.00;102628.69;5027890;28;20104;-59
2022/07/10 05:27:19;;;;;;;4.93;3.10;;;;;;;13.08;100.00;102631.56;5027798;28;20480;-59
2022/07/10 05:29:45;;;;;;;5.70;2.72;;;;;;;13.14;100.00;102623.19;5025917;28;20017;-60
2022/07/10 05:32:10;;;;;;;6.82;3.20;;;;;;;13.16;100.00;102630.28;5021223;28;20080;-59
2022/07/10 05:34:36;;;;;;;4.72;3.33;;;;;;;13.19;100.00;102629.50;5026994;28;20057;-59
2022/07/10 05:37:01;;;;;;;8.25;3.08;;;;;;;13.24;100.00;102630.63;5026114;28;20025;-59
2022/07/10 05:39:26;;;;;;;5.20;3.15;;;;;;;13.33;100.00;102632.78;5017215;28;20037;-60
2022/07/10 05:41:52;;;;;;;3.95;2.95;;;;;;;13.47;100.00;102628.28;5006429;28;20049;-59
2022/07/10 05:44:19;;;;;;;5.75;3.20;;;;;;;13.62;100.00;102620.34;5007780;28;20481;-59
2022/07/10 05:46:45;;;;;;;5.85;3.45;;;;;;;13.80;100.00;102624.63;5018536;28;20026;-60
2022/07/10 05:49:10;;;;;;;4.05;2.58;;;;;;;13.98;100.00;102629.81;5025941;28;20324;-58
2022/07/10 05:51:35;;;;;;;4.13;2.05;;;;;;;14.17;100.00;102633.28;5027243;28;20384;-59
2022/07/10 05:54:00;;;;;;;5.18;2.25;;;;;;;14.34;99.19;102623.59;5027142;28;20025;-59
2022/07/10 05:56:26;;;;;;;4.75;1.90;;;;;;;14.51;98.18;102629.59;5026754;28;20381;-60
2022/07/10 05:58:51;;;;;;;5.78;1.98;;;;;;;14.70;97.68;102630.38;5027439;28;20037;-59
2022/07/10 06:01:16;;;;;;;3.38;1.80;;;;;;;14.89;96.90;102634.69;5026792;28;20132;-58
2022/07/10 06:03:42;;;;;;;4.88;1.45;;;;;;;15.07;95.54;102628.50;5017614;28;20026;-59
2022/07/10 06:06:07;;;;;;;3.22;1.27;;;;;;;15.27;94.11;102620.59;5022715;28;20021;-59
2022/07/10 06:08:32;;;;;;;4.25;1.40;;;;;;;15.47;94.29;102620.50;5027433;28;20363;-59
2022/07/10 06:10:57;;;;;;;2.78;1.40;;;;;;;15.67;92.69;102617.78;5026490;28;20021;-59
2022/07/10 06:13:22;;;;;;;5.88;1.55;;;;;;;15.89;91.34;102616.00;5026543;28;20021;-61
2022/07/10 06:15:48;;;;;;;4.15;1.38;;;;;;;16.05;88.87;102625.34;5027416;28;20388;-59
2022/07/10 06:18:13;;;;;;;5.18;1.30;;;;;;;16.25;88.15;102615.63;5027353;28;20029;-60
2022/07/10 06:20:38;;;;;;;6.05;1.23;;;;;;;16.39;86.86;102616.13;5027172;28;20025;-61
2022/07/10 06:23:04;;;;;;;5.82;1.80;;;;;;;16.56;87.02;102623.69;5027210;28;20025;-60
2022/07/10 06:25:29;;;;;;;4.22;1.27;;;;;;;16.66;85.65;102622.28;5026528;28;20060;-60
2022/07/10 06:27:54;;;;;;;4.85;1.52;;;;;;;16.71;83.17;102628.59;5027154;28;20025;-59
2022/07/10 06:30:19;;;;;;;3.38;1.13;;;;;;;16.72;82.63;102622.50;5027027;28;20099;-59
2022/07/10 06:32:45;;;;;;;2.85;1.08;;;;;;;16.72;82.20;102621.59;5026885;28;20030;-60
2022/07/10 06:35:11;;;;;;;3.05;1.10;;;;;;;16.73;82.95;102620.78;5027059;28;20032;-59
2022/07/10 06:37:36;;;;;;;3.92;1.52;;;;;;;16.89;83.08;102622.19;5027283;28;20028;-59
2022/07/10 06:40:01;;;;;;;3.90;1.00;;;;;;;17.09;82.25;102611.50;5026029;28;20049;-60
2022/07/10 06:42:27;;;;;;;5.13;1.50;;;;;;;17.32;81.92;102608.78;5028571;28;20022;-59
2022/07/10 06:44:52;;;;;;;3.63;1.00;;;;;;;17.49;81.12;102612.81;5030104;28;20029;-58
2022/07/10 06:50:04;;;;;;;4.38;1.40;;;;;;;17.82;77.90;102613.81;5018180;28;20057;-59
2022/07/10 06:52:32;;;;;;;6.03;1.20;;;;;;;17.89;77.99;102620.13;5011526;28;20025;-59
2022/07/10 06:54:58;;;;;;;5.28;1.30;;;;;;;17.73;75.81;102616.16;5009845;28;20061;-61
2022/07/10 06:57:23;;;;;;;5.43;1.38;;;;;;;17.75;77.41;102610.09;5012425;28;20096;-60
2022/07/10 06:59:48;;;;;;;5.03;1.33;;;;;;;17.69;76.42;102614.25;5020401;28;20060;-61
2022/07/10 07:02:14;;;;;;;5.93;1.83;;;;;;;17.77;76.76;102613.66;5009540;28;20389;-59
2022/07/10 07:04:39;;;;;;;4.45;1.30;;;;;;;17.80;75.88;102617.22;5013490;28;20068;-58
2022/07/10 07:07:04;;;;;;;6.13;1.45;;;;;;;17.73;76.06;102609.19;5030455;28;20079;-60
2022/07/10 07:09:30;;;;;;;5.60;1.50;;;;;;;17.66;76.60;102612.44;5029710;28;20539;-58
2022/07/10 07:11:55;;;;;;;3.92;1.25;;;;;;;17.52;76.87;102618.13;5030048;28;20071;-59
2022/07/10 07:14:20;;;;;;;6.25;1.30;;;;;;;17.47;77.88;102619.72;5029203;28;20029;-60
2022/07/10 07:16:56;;;;;;;4.55;1.30;;;;;;;17.46;78.49;102617.06;5029698;28;20032;-60
2022/07/10 07:19:30;;;;;;;5.15;1.10;;;;;;;17.58;78.13;102620.06;5029188;28;20544;-60
2022/07/10 07:24:39;;;;;;;5.97;1.38;;;;;;;17.61;77.73;102635.00;5028591;28;20080;-61
2022/07/10 07:27:04;;;;;;;5.45;1.15;;;;;;;17.54;77.43;102626.03;5029506;28;20037;-60
2022/07/10 07:29:30;;;;;;;4.00;1.30;;;;;;;17.45;78.80;102631.88;5029401;28;20427;-60
2022/07/10 07:31:55;;;;;;;3.42;1.05;;;;;;;17.34;79.01;102628.06;5028991;28;20021;-59
2022/07/10 07:34:20;;;;;;;7.35;1.35;;;;;;;17.28;79.81;102637.50;5028673;28;20121;-60
2022/07/10 07:36:46;;;;;;;8.18;2.42;;;;;;;17.24;80.21;102630.38;5028498;28;20032;-60
2022/07/10 07:39:11;;;;;;;7.60;1.33;;;;;;;17.20;80.23;102620.63;5028738;28;20018;-59
2022/07/10 07:41:36;;;;;;;7.53;1.30;;;;;;;17.22;80.35;102625.91;5028691;28;20058;-59
2022/07/10 07:44:01;;;;;;;4.65;1.25;;;;;;;17.21;80.48;102622.41;5028337;28;20017;-60
2022/07/10 07:46:27;;;;;;;7.47;2.20;;;;;;;17.23;80.81;102631.22;5028769;28;20477;-59
2022/07/10 07:48:52;;;;;;;5.43;1.30;;;;;;;17.26;81.21;102628.69;5028178;28;20179;-60
2022/07/10 07:51:18;;;;;;;5.47;1.13;;;;;;;17.30;81.27;102626.16;5029172;28;20139;-60
2022/07/10 07:53:44;;;;;;;4.63;1.60;;;;;;;17.32;81.02;102624.50;5027073;28;20030;-60
2022/07/10 07:56:09;;;;;;;4.70;2.13;;;;;;;17.32;80.99;102622.78;5028509;28;20022;-60
2022/07/10 07:58:34;;;;;;;4.75;1.70;;;;;;;17.32;80.82;102624.50;5028625;28;20052;-60
2022/07/10 08:00:59;;;;;;;4.45;1.60;;;;;;;17.28;80.83;102624.41;5014449;28;20483;-60
2022/07/10 08:03:25;;;;;;;6.65;2.38;;;;;;;17.26;80.91;102626.06;5017590;28;20025;-60
2022/07/10 08:05:51;;;;;;;4.30;2.50;;;;;;;17.26;81.32;102626.06;5021800;28;20034;-60
2022/07/10 08:08:16;;;;;;;5.32;2.15;;;;;;;17.26;81.52;102622.56;5027307;28;20106;-59
2022/07/10 08:10:42;;;;;;;6.82;2.30;;;;;;;17.27;81.47;102627.84;5028511;28;20040;-60
2022/07/10 08:13:07;;;;;;;6.57;1.80;;;;;;;17.26;81.16;102620.84;5028400;28;20029;-60
2022/07/10 08:15:34;;;;;;;3.72;1.70;;;;;;;17.23;80.71;102618.13;5028471;28;20091;-60
2022/07/10 08:18:00;;;;;;;7.45;2.20;;;;;;;17.20;81.83;102625.00;5027982;28;20059;-59
2022/07/10 08:20:26;;;;;;;5.20;2.35;;;;;;;17.18;81.47;102619.69;5027632;28;20475;-60
2022/07/10 08:22:53;;;;;;;8.23;2.38;;;;;;;17.13;81.75;102618.63;5027940;28;20061;-59
2022/07/10 08:25:19;;;;;;;5.70;2.20;;;;;;;17.10;82.42;102619.44;5027898;28;20024;-60
2022/07/10 08:27:45;;;;;;;7.00;1.92;;;;;;;17.11;84.56;102622.94;5027851;28;20029;-60
2022/07/10 08:30:11;;;;;;;5.82;2.65;;;;;;;17.10;83.33;102621.13;5027860;28;20440;-60
2022/07/10 08:32:37;;;;;;;9.23;2.47;;;;;;;17.12;83.03;102624.72;5027266;28;20026;-60
2022/07/10 08:35:03;;;;;;;7.07;2.38;;;;;;;17.14;83.62;102621.31;5027583;28;20099;-60
2022/07/10 08:37:28;;;;;;;5.15;2.20;;;;;;;17.20;83.47;102630.22;5027965;28;20029;-59
2022/07/10 08:39:54;;;;;;;4.90;1.70;;;;;;;17.21;83.36;102621.53;5027697;28;20021;-59
2022/07/10 08:42:20;;;;;;;5.18;1.88;;;;;;;17.26;82.82;102620.84;5026966;28;20025;-59
2022/07/10 08:44:46;;;;;;;5.30;2.30;;;;;;;17.33;82.88;102621.03;5027750;28;20366;-59
2022/07/10 08:47:12;;;;;;;4.30;1.98;;;;;;;17.37;81.95;102620.28;5028259;28;20021;-59
2022/07/10 08:49:44;;;;;;;5.85;2.10;;;;;;;17.39;81.90;102618.59;5027231;28;20383;-60
2022/07/10 08:52:21;;;;;;;5.85;2.25;;;;;;;17.40;82.31;102623.88;5024421;28;20025;-60
2022/07/10 08:54:46;;;;;;;9.65;3.47;;;;;;;17.44;82.53;102630.13;5021170;28;20037;-59
2022/07/10 08:57:12;;;;;;;7.15;3.13;;;;;;;17.43;82.55;102630.94;5026085;28;20499;-60
2022/07/10 08:59:37;;;;;;;6.72;2.85;;;;;;;17.42;81.44;102637.03;5024059;28;20029;-60
2022/07/10 09:02:03;;;;;;;8.52;2.53;;;;;;;17.42;82.34;102637.03;5013015;28;20045;-60
2022/07/10 09:04:28;;;;;;;4.13;2.05;;;;;;;17.41;81.99;102630.03;5022180;28;20061;-58
2022/07/10 09:06:55;;;;;;;4.47;2.10;;;;;;;17.38;81.88;102635.16;5007877;28;20116;-60
2022/07/10 09:09:21;;;;;;;8.07;3.10;;;;;;;17.38;82.98;102637.78;5007695;28;20446;-59
2022/07/10 09:11:46;;;;;;;6.10;2.40;;;;;;;17.38;82.88;102635.16;5007780;28;20112;-59
2022/07/10 09:14:16;;;;;;;5.68;2.67;;;;;;;17.42;83.17;102626.56;5007251;28;20038;-59
2022/07/10 09:16:45;;;;;;;5.93;2.20;;;;;;;17.48;83.64;102618.91;5019457;28;20084;-60
2022/07/10 09:19:22;;;;;;;4.15;1.90;;;;;;;17.54;82.27;102619.94;5015927;28;20092;-59
2022/07/10 09:21:50;;;;;;;3.03;1.83;;;;;;;17.55;81.55;102613.84;5007173;28;20381;-59
2022/07/10 09:24:19;;;;;;;5.25;1.70;;;;;;;17.61;81.67;102614.91;5007458;28;20022;-60
2022/07/10 09:27:03;;;;;;;5.82;1.77;;;;;;;17.69;82.11;102603.78;5007359;28;20496;-60
2022/07/10 09:29:32;;;;;;;5.82;1.63;;;;;;;17.79;81.38;102607.59;5006567;28;20115;-59
2022/07/10 09:31:59;;;;;;;5.22;2.20;;;;;;;17.88;81.87;102602.63;5018622;28;20477;-60
2022/07/10 09:34:42;;;;;;;3.30;1.60;;;;;;;17.97;82.17;102605.47;5015368;28;20076;-60
2022/07/10 09:37:23;;;;;;;3.38;1.67;;;;;;;18.10;82.77;102601.50;5020809;28;20030;-59
2022/07/10 09:39:55;;;;;;;5.95;1.75;;;;;;;18.10;79.70;102606.72;5006906;28;20030;-60
2022/07/10 09:42:34;;;;;;;4.28;1.90;;;;;;;18.07;80.92;102596.16;5006927;28;20022;-60
2022/07/10 09:45:12;;;;;;;4.63;2.05;;;;;;;17.99;79.90;102598.56;5007148;28;20069;-60
2022/07/10 09:47:58;;;;;;;5.88;1.73;;;;;;;17.94;80.81;102594.91;5013549;28;20029;-60
2022/07/10 09:50:30;;;;;;;4.15;1.90;;;;;;;17.91;81.31;102597.44;5008490;28;20041;-59
2022/07/10 09:52:59;;;;;;;4.97;2.33;;;;;;;17.96;82.58;102597.56;5014775;28;20032;-59
2022/07/10 09:55:26;;;;;;;4.45;1.73;;;;;;;18.05;81.41;102591.72;5026160;28;20021;-58
2022/07/10 09:58:03;;;;;;;4.40;2.05;;;;;;;18.19;80.67;102584.25;5021193;28;20112;-57
2022/07/10 10:00:34;;;;;;;5.22;1.52;;;;;;;18.39;79.80;102586.53;5027180;28;20030;-59
2022/07/10 10:03:05;;;;;;;4.15;1.67;;;;;;;18.58;79.21;102587.94;5018430;28;20146;-58
2022/07/10 10:05:40;;;;;;;3.75;1.50;;;;;;;18.75;80.20;102591.00;5017538;28;20492;-58
2022/07/10 10:08:30;;;;;;;2.83;1.55;;;;;;;18.83;77.64;102594.69;5026963;28;20474;-59
2022/07/10 10:10:57;;;;;;;6.67;1.70;;;;;;;18.79;77.57;102586.72;5026604;28;20052;-59
2022/07/10 10:13:27;;;;;;;7.45;2.17;;;;;;;18.75;77.10;102590.09;5026789;28;20056;-60
2022/07/10 10:15:53;;;;;;;5.00;1.95;;;;;;;18.67;76.82;102596.03;5027249;28;20421;-59
2022/07/10 10:18:23;;;;;;;5.35;1.77;;;;;;;18.68;77.25;102596.94;5029636;28;20489;-58
2022/07/10 10:20:50;;;;;;;6.00;2.20;;;;;;;18.77;77.82;102591.03;5030689;28;20026;-59
2022/07/10 10:23:22;;;;;;;3.40;1.77;;;;;;;18.90;78.78;102585.25;5029850;28;20307;-60
2022/07/10 10:25:50;;;;;;;2.95;1.80;;;;;;;19.08;78.33;102578.66;5022231;28;20389;-59
2022/07/10 10:28:17;;;;;;;6.57;2.13;;;;;;;19.23;77.01;102579.91;5010970;28;20030;-59
2022/07/10 10:30:45;;;;;;;2.42;1.70;;;;;;;19.39;75.05;102574.13;5030651;28;20095;-60
2022/07/10 10:33:32;;;;;;;3.67;1.70;;;;;;;19.58;75.08;102568.41;5026790;28;20021;-62
2022/07/10 10:35:58;;;;;;;4.25;2.00;;;;;;;19.70;74.54;102573.06;5019899;28;20052;-60
2022/07/10 10:38:23;;;;;;;4.93;2.00;;;;;;;19.74;73.55;102574.88;5024376;28;20009;-59
2022/07/10 10:40:49;;;;;;;5.13;2.35;;;;;;;19.75;73.30;102574.03;5026542;28;20048;-60
2022/07/10 10:43:23;;;;;;;3.30;2.10;;;;;;;19.72;72.38;102572.22;5027054;28;20025;-59
2022/07/10 10:45:54;;;;;;;3.53;1.73;;;;;;;19.65;73.83;102575.56;5018400;28;20057;-60
2022/07/10 10:48:23;;;;;;;4.15;2.20;;;;;;;19.60;73.72;102572.88;5028763;28;20542;-58
2022/07/10 10:50:53;;;;;;;5.18;2.10;;;;;;;19.62;73.68;102573.78;5023898;28;20428;-60
2022/07/10 10:53:29;;;;;;;6.63;1.83;;;;;;;19.72;74.73;102581.84;5010023;28;20022;-60
2022/07/10 10:56:00;;;;;;;4.50;1.80;;;;;;;19.86;74.72;102569.00;5026918;28;20028;-60
2022/07/10 10:58:27;;;;;;;3.90;1.70;;;;;;;19.94;71.25;102569.16;5029270;28;20083;-62
2022/07/10 11:01:02;;;;;;;2.97;1.30;;;;;;;19.96;70.56;102570.06;5026998;28;20412;-59
2022/07/10 11:03:28;;;;;;;1.75;1.35;;;;;;;20.03;71.90;102566.72;5025635;28;20057;-61
2022/07/10 11:05:54;;;;;;;3.40;1.30;;;;;;;20.07;71.01;102558.06;5024401;28;20022;-60
2022/07/10 11:08:43;;;;;;;1.70;1.20;;;;;;;20.12;71.25;102564.31;5025312;28;20061;-60
2022/07/10 11:11:30;;;;;;;3.72;1.30;;;;;;;20.23;71.10;102563.59;5019089;28;20120;-60
2022/07/10 11:13:59;;;;;;;1.33;1.23;;;;;;;20.32;70.20;102555.91;5027883;28;20032;-59
2022/07/10 11:16:24;;;;;;;2.15;1.02;;;;;;;20.32;68.68;102560.25;5026220;28;20524;-59
2022/07/10 11:18:54;;;;;;;3.85;1.33;;;;;;;20.39;69.82;102554.25;5025472;28;20022;-60
2022/07/10 11:21:23;;;;;;;2.97;1.00;;;;;;;20.38;68.01;102542.81;5025720;28;20064;-60
2022/07/10 11:24:19;;;;;;;3.17;1.23;;;;;;;20.45;70.25;102538.59;5022599;28;20044;-61
2022/07/10 11:26:51;;;;;;;2.63;1.40;;;;;;;20.51;70.18;102546.56;5024695;28;20121;-61
2022/07/10 11:29:20;;;;;;;3.97;1.45;;;;;;;20.57;70.44;102551.06;5027281;28;20030;-60
2022/07/10 11:31:55;;;;;;;2.67;1.40;;;;;;;20.65;70.89;102556.47;5027589;28;20076;-61